sensor_id;sensor_type;location;lat;lon;timestamp;temperature;humidity
80931;DHT22;70388;42.698;23.324;2024-01-07T00:00:12;7.80;88.00
80931;DHT22;70388;42.698;23.324;2024-01-07T00:02:38;7.70;88.20
80931;DHT22;70388;42.698;23.324;2024-01-07T00:05:04;7.70;88.30
80931;DHT22;70388;42.698;23.324;2024-01-07T00:07:30;7.70;88.30
80931;DHT22;70388;42.698;23.324;2024-01-07T00:09:56;7.70;88.40
80931;DHT22;70388;42.698;23.324;2024-01-07T00:12:22;7.60;88.80
80931;DHT22;70388;42.698;23.324;2024-01-07T00:14:47;7.70;88.80
80931;DHT22;70388;42.698;23.324;2024-01-07T00:17:13;7.70;88.50
80931;DHT22;70388;42.698;23.324;2024-01-07T00:19:39;7.70;88.50
80931;DHT22;70388;42.698;23.324;2024-01-07T00:22:06;7.60;88.50
80931;DHT22;70388;42.698;23.324;2024-01-07T00:24:31;7.60;88.20
80931;DHT22;70388;42.698;23.324;2024-01-07T00:26:57;7.50;89.50
80931;DHT22;70388;42.698;23.324;2024-01-07T00:29:23;7.40;88.80
80931;DHT22;70388;42.698;23.324;2024-01-07T00:31:49;7.30;89.30
80931;DHT22;70388;42.698;23.324;2024-01-07T00:34:14;7.30;90.10
80931;DHT22;70388;42.698;23.324;2024-01-07T00:36:40;7.30;89.90
80931;DHT22;70388;42.698;23.324;2024-01-07T00:39:06;7.40;89.70
80931;DHT22;70388;42.698;23.324;2024-01-07T00:41:32;7.40;89.40
80931;DHT22;70388;42.698;23.324;2024-01-07T00:43:57;7.30;89.40
80931;DHT22;70388;42.698;23.324;2024-01-07T00:46:23;7.30;89.30
80931;DHT22;70388;42.698;23.324;2024-01-07T00:48:49;7.20;90.10
80931;DHT22;70388;42.698;23.324;2024-01-07T00:51:15;7.10;90.50
80931;DHT22;70388;42.698;23.324;2024-01-07T00:53:40;7.10;90.70
80931;DHT22;70388;42.698;23.324;2024-01-07T00:56:06;7.20;90.60
80931;DHT22;70388;42.698;23.324;2024-01-07T00:58:32;7.10;90.90
80931;DHT22;70388;42.698;23.324;2024-01-07T01:00:58;7.00;91.30
80931;DHT22;70388;42.698;23.324;2024-01-07T01:03:26;7.20;91.00
80931;DHT22;70388;42.698;23.324;2024-01-07T01:05:52;7.30;90.80
80931;DHT22;70388;42.698;23.324;2024-01-07T01:08:18;7.40;90.60
80931;DHT22;70388;42.698;23.324;2024-01-07T01:10:44;7.50;90.30
80931;DHT22;70388;42.698;23.324;2024-01-07T01:13:09;7.50;90.10
80931;DHT22;70388;42.698;23.324;2024-01-07T01:15:35;7.60;89.80
80931;DHT22;70388;42.698;23.324;2024-01-07T01:18:01;7.70;89.40
80931;DHT22;70388;42.698;23.324;2024-01-07T01:20:27;7.90;88.10
80931;DHT22;70388;42.698;23.324;2024-01-07T01:22:53;7.90;87.80
80931;DHT22;70388;42.698;23.324;2024-01-07T01:25:19;8.00;87.50
80931;DHT22;70388;42.698;23.324;2024-01-07T01:27:45;8.10;86.90
80931;DHT22;70388;42.698;23.324;2024-01-07T01:30:11;8.10;86.60
80931;DHT22;70388;42.698;23.324;2024-01-07T01:32:38;8.00;86.50
80931;DHT22;70388;42.698;23.324;2024-01-07T01:35:05;8.00;86.40
80931;DHT22;70388;42.698;23.324;2024-01-07T01:37:31;8.10;87.00
80931;DHT22;70388;42.698;23.324;2024-01-07T01:39:58;8.10;86.20
80931;DHT22;70388;42.698;23.324;2024-01-07T01:42:24;8.10;86.10
80931;DHT22;70388;42.698;23.324;2024-01-07T01:44:50;8.10;86.40
80931;DHT22;70388;42.698;23.324;2024-01-07T01:47:17;8.10;86.40
80931;DHT22;70388;42.698;23.324;2024-01-07T01:49:45;8.10;86.60
80931;DHT22;70388;42.698;23.324;2024-01-07T01:52:12;8.00;86.50
80931;DHT22;70388;42.698;23.324;2024-01-07T01:54:37;8.10;86.80
80931;DHT22;70388;42.698;23.324;2024-01-07T01:57:04;8.10;86.70
80931;DHT22;70388;42.698;23.324;2024-01-07T01:59:32;8.10;86.10
80931;DHT22;70388;42.698;23.324;2024-01-07T02:01:59;8.10;86.50
80931;DHT22;70388;42.698;23.324;2024-01-07T02:04:26;8.00;86.60
80931;DHT22;70388;42.698;23.324;2024-01-07T02:06:51;8.10;86.60
80931;DHT22;70388;42.698;23.324;2024-01-07T02:09:17;8.00;86.80
80931;DHT22;70388;42.698;23.324;2024-01-07T02:11:43;8.00;86.70
80931;DHT22;70388;42.698;23.324;2024-01-07T02:14:09;8.00;86.90
80931;DHT22;70388;42.698;23.324;2024-01-07T02:16:35;8.10;86.60
80931;DHT22;70388;42.698;23.324;2024-01-07T02:19:00;8.10;87.30
80931;DHT22;70388;42.698;23.324;2024-01-07T02:21:26;8.10;86.50
80931;DHT22;70388;42.698;23.324;2024-01-07T02:23:52;8.10;86.30
80931;DHT22;70388;42.698;23.324;2024-01-07T02:26:18;8.10;86.20
80931;DHT22;70388;42.698;23.324;2024-01-07T02:28:43;8.10;86.20
80931;DHT22;70388;42.698;23.324;2024-01-07T02:31:09;8.10;85.80
80931;DHT22;70388;42.698;23.324;2024-01-07T02:33:35;7.90;86.20
80931;DHT22;70388;42.698;23.324;2024-01-07T02:36:01;7.80;86.70
80931;DHT22;70388;42.698;23.324;2024-01-07T02:38:27;7.70;86.90
80931;DHT22;70388;42.698;23.324;2024-01-07T02:40:52;7.80;87.10
80931;DHT22;70388;42.698;23.324;2024-01-07T02:43:18;7.80;87.20
80931;DHT22;70388;42.698;23.324;2024-01-07T02:45:44;7.80;87.50
80931;DHT22;70388;42.698;23.324;2024-01-07T02:48:09;7.70;87.90
80931;DHT22;70388;42.698;23.324;2024-01-07T02:50:35;7.80;88.30
80931;DHT22;70388;42.698;23.324;2024-01-07T02:53:01;7.60;88.70
80931;DHT22;70388;42.698;23.324;2024-01-07T02:55:27;7.50;89.60
80931;DHT22;70388;42.698;23.324;2024-01-07T02:57:52;7.70;89.70
80931;DHT22;70388;42.698;23.324;2024-01-07T03:00:18;7.70;89.10
80931;DHT22;70388;42.698;23.324;2024-01-07T03:02:44;7.80;88.70
80931;DHT22;70388;42.698;23.324;2024-01-07T03:05:10;7.90;88.40
80931;DHT22;70388;42.698;23.324;2024-01-07T03:07:38;7.90;88.40
80931;DHT22;70388;42.698;23.324;2024-01-07T03:10:05;8.00;88.20
80931;DHT22;70388;42.698;23.324;2024-01-07T03:12:31;8.10;87.80
80931;DHT22;70388;42.698;23.324;2024-01-07T03:14:57;8.20;87.40
80931;DHT22;70388;42.698;23.324;2024-01-07T03:17:22;8.20;87.20
80931;DHT22;70388;42.698;23.324;2024-01-07T03:19:49;8.30;87.30
80931;DHT22;70388;42.698;23.324;2024-01-07T03:22:15;8.40;87.40
80931;DHT22;70388;42.698;23.324;2024-01-07T03:24:42;8.40;87.20
80931;DHT22;70388;42.698;23.324;2024-01-07T03:27:08;8.30;87.80
80931;DHT22;70388;42.698;23.324;2024-01-07T03:29:33;8.40;87.50
80931;DHT22;70388;42.698;23.324;2024-01-07T03:32:01;8.30;88.50
80931;DHT22;70388;42.698;23.324;2024-01-07T03:34:27;8.20;89.90
80931;DHT22;70388;42.698;23.324;2024-01-07T03:36:53;8.30;90.00
80931;DHT22;70388;42.698;23.324;2024-01-07T03:39:18;8.40;90.10
80931;DHT22;70388;42.698;23.324;2024-01-07T03:41:44;8.50;90.30
80931;DHT22;70388;42.698;23.324;2024-01-07T03:44:10;8.50;90.20
80931;DHT22;70388;42.698;23.324;2024-01-07T03:46:35;8.60;90.50
80931;DHT22;70388;42.698;23.324;2024-01-07T03:49:01;8.60;90.90
80931;DHT22;70388;42.698;23.324;2024-01-07T03:51:27;8.60;91.10
80931;DHT22;70388;42.698;23.324;2024-01-07T03:53:53;8.70;91.20
80931;DHT22;70388;42.698;23.324;2024-01-07T03:56:18;8.70;91.50
80931;DHT22;70388;42.698;23.324;2024-01-07T03:58:44;8.70;91.70
80931;DHT22;70388;42.698;23.324;2024-01-07T04:01:10;8.70;92.00
80931;DHT22;70388;42.698;23.324;2024-01-07T04:03:35;8.80;92.10
80931;DHT22;70388;42.698;23.324;2024-01-07T04:06:06;8.80;92.20
80931;DHT22;70388;42.698;23.324;2024-01-07T04:08:33;8.80;92.30
80931;DHT22;70388;42.698;23.324;2024-01-07T04:11:01;8.80;92.40
80931;DHT22;70388;42.698;23.324;2024-01-07T04:13:27;8.90;92.50
80931;DHT22;70388;42.698;23.324;2024-01-07T04:15:53;9.00;92.50
80931;DHT22;70388;42.698;23.324;2024-01-07T04:18:19;9.00;92.50
80931;DHT22;70388;42.698;23.324;2024-01-07T04:20:44;9.00;92.60
80931;DHT22;70388;42.698;23.324;2024-01-07T04:23:10;9.00;92.80
80931;DHT22;70388;42.698;23.324;2024-01-07T04:25:36;8.90;92.90
80931;DHT22;70388;42.698;23.324;2024-01-07T04:28:02;8.90;92.90
80931;DHT22;70388;42.698;23.324;2024-01-07T04:30:28;9.00;92.80
80931;DHT22;70388;42.698;23.324;2024-01-07T04:32:53;9.00;92.90
80931;DHT22;70388;42.698;23.324;2024-01-07T04:35:19;9.10;92.80
80931;DHT22;70388;42.698;23.324;2024-01-07T04:37:45;9.10;92.70
80931;DHT22;70388;42.698;23.324;2024-01-07T04:40:11;8.90;93.30
80931;DHT22;70388;42.698;23.324;2024-01-07T04:42:37;9.00;93.30
80931;DHT22;70388;42.698;23.324;2024-01-07T04:45:03;9.20;92.60
80931;DHT22;70388;42.698;23.324;2024-01-07T04:47:32;9.30;92.20
80931;DHT22;70388;42.698;23.324;2024-01-07T04:50:02;9.30;91.90
80931;DHT22;70388;42.698;23.324;2024-01-07T04:52:28;9.30;91.90
80931;DHT22;70388;42.698;23.324;2024-01-07T04:54:54;9.30;91.80
80931;DHT22;70388;42.698;23.324;2024-01-07T04:57:20;9.30;91.50
80931;DHT22;70388;42.698;23.324;2024-01-07T04:59:47;9.20;91.80
80931;DHT22;70388;42.698;23.324;2024-01-07T05:02:13;9.10;92.00
80931;DHT22;70388;42.698;23.324;2024-01-07T05:04:39;9.00;91.70
80931;DHT22;70388;42.698;23.324;2024-01-07T05:07:05;9.00;91.40
80931;DHT22;70388;42.698;23.324;2024-01-07T05:09:32;8.90;91.50
80931;DHT22;70388;42.698;23.324;2024-01-07T05:11:58;8.80;91.60
80931;DHT22;70388;42.698;23.324;2024-01-07T05:14:23;8.80;91.80
80931;DHT22;70388;42.698;23.324;2024-01-07T05:16:49;8.80;92.00
80931;DHT22;70388;42.698;23.324;2024-01-07T05:19:15;8.70;92.20
80931;DHT22;70388;42.698;23.324;2024-01-07T05:21:41;8.70;92.30
80931;DHT22;70388;42.698;23.324;2024-01-07T05:24:06;8.70;92.30
80931;DHT22;70388;42.698;23.324;2024-01-07T05:26:42;8.80;92.20
80931;DHT22;70388;42.698;23.324;2024-01-07T05:29:08;8.70;92.40
80931;DHT22;70388;42.698;23.324;2024-01-07T05:31:34;8.60;92.70
80931;DHT22;70388;42.698;23.324;2024-01-07T05:34:00;8.70;92.60
80931;DHT22;70388;42.698;23.324;2024-01-07T05:36:26;8.60;92.80
80931;DHT22;70388;42.698;23.324;2024-01-07T05:38:51;8.70;92.90
80931;DHT22;70388;42.698;23.324;2024-01-07T05:41:17;8.80;92.50
80931;DHT22;70388;42.698;23.324;2024-01-07T05:43:43;8.80;92.20
80931;DHT22;70388;42.698;23.324;2024-01-07T05:46:09;8.90;92.20
80931;DHT22;70388;42.698;23.324;2024-01-07T05:48:43;8.90;92.10
80931;DHT22;70388;42.698;23.324;2024-01-07T05:51:12;8.90;92.20
80931;DHT22;70388;42.698;23.324;2024-01-07T05:53:39;8.80;92.70
80931;DHT22;70388;42.698;23.324;2024-01-07T05:56:05;8.90;92.80
80931;DHT22;70388;42.698;23.324;2024-01-07T05:58:31;9.00;92.50
80931;DHT22;70388;42.698;23.324;2024-01-07T06:00:57;9.00;92.30
80931;DHT22;70388;42.698;23.324;2024-01-07T06:03:23;9.00;92.40
80931;DHT22;70388;42.698;23.324;2024-01-07T06:05:48;9.00;92.30
80931;DHT22;70388;42.698;23.324;2024-01-07T06:08:14;8.70;92.50
80931;DHT22;70388;42.698;23.324;2024-01-07T06:10:40;8.20;94.00
80931;DHT22;70388;42.698;23.324;2024-01-07T06:13:06;7.90;95.40
80931;DHT22;70388;42.698;23.324;2024-01-07T06:15:32;7.70;96.20
80931;DHT22;70388;42.698;23.324;2024-01-07T06:17:58;7.90;96.00
80931;DHT22;70388;42.698;23.324;2024-01-07T06:20:24;8.10;95.50
80931;DHT22;70388;42.698;23.324;2024-01-07T06:22:50;8.40;94.80
80931;DHT22;70388;42.698;23.324;2024-01-07T06:25:16;8.50;94.10
80931;DHT22;70388;42.698;23.324;2024-01-07T06:27:42;8.80;93.50
80931;DHT22;70388;42.698;23.324;2024-01-07T06:30:08;8.80;93.30
80931;DHT22;70388;42.698;23.324;2024-01-07T06:32:34;8.90;93.00
80931;DHT22;70388;42.698;23.324;2024-01-07T06:35:00;9.10;92.50
80931;DHT22;70388;42.698;23.324;2024-01-07T06:37:25;9.00;91.90
80931;DHT22;70388;42.698;23.324;2024-01-07T06:39:54;8.60;92.90
80931;DHT22;70388;42.698;23.324;2024-01-07T06:42:20;8.50;93.50
80931;DHT22;70388;42.698;23.324;2024-01-07T06:44:46;8.70;93.30
80931;DHT22;70388;42.698;23.324;2024-01-07T06:47:12;8.80;92.90
80931;DHT22;70388;42.698;23.324;2024-01-07T06:49:37;9.00;92.50
80931;DHT22;70388;42.698;23.324;2024-01-07T06:52:05;9.10;92.10
80931;DHT22;70388;42.698;23.324;2024-01-07T06:54:32;8.90;92.50
80931;DHT22;70388;42.698;23.324;2024-01-07T06:56:58;8.70;93.40
80931;DHT22;70388;42.698;23.324;2024-01-07T06:59:24;8.50;93.70
80931;DHT22;70388;42.698;23.324;2024-01-07T07:01:50;8.10;94.80
80931;DHT22;70388;42.698;23.324;2024-01-07T07:04:16;8.20;95.10
80931;DHT22;70388;42.698;23.324;2024-01-07T07:06:41;8.50;95.00
80931;DHT22;70388;42.698;23.324;2024-01-07T07:09:07;8.50;94.30
80931;DHT22;70388;42.698;23.324;2024-01-07T07:11:33;8.40;94.50
80931;DHT22;70388;42.698;23.324;2024-01-07T07:13:59;8.50;94.20
80931;DHT22;70388;42.698;23.324;2024-01-07T07:16:25;8.30;94.50
80931;DHT22;70388;42.698;23.324;2024-01-07T07:18:51;8.30;95.10
80931;DHT22;70388;42.698;23.324;2024-01-07T07:21:19;8.50;95.00
80931;DHT22;70388;42.698;23.324;2024-01-07T07:23:45;8.80;94.10
80931;DHT22;70388;42.698;23.324;2024-01-07T07:26:10;8.90;93.50
80931;DHT22;70388;42.698;23.324;2024-01-07T07:28:36;9.20;93.00
80931;DHT22;70388;42.698;23.324;2024-01-07T07:31:02;9.10;92.70
80931;DHT22;70388;42.698;23.324;2024-01-07T07:33:28;9.20;92.90
80931;DHT22;70388;42.698;23.324;2024-01-07T07:35:54;9.40;92.10
80931;DHT22;70388;42.698;23.324;2024-01-07T07:38:19;9.70;91.40
80931;DHT22;70388;42.698;23.324;2024-01-07T07:40:45;9.90;90.50
80931;DHT22;70388;42.698;23.324;2024-01-07T07:43:20;10.00;90.10
80931;DHT22;70388;42.698;23.324;2024-01-07T07:45:47;10.10;89.60
80931;DHT22;70388;42.698;23.324;2024-01-07T07:48:12;10.20;90.00
80931;DHT22;70388;42.698;23.324;2024-01-07T07:50:38;9.90;90.50
80931;DHT22;70388;42.698;23.324;2024-01-07T07:53:05;9.60;91.30
80931;DHT22;70388;42.698;23.324;2024-01-07T07:55:32;9.70;91.30
80931;DHT22;70388;42.698;23.324;2024-01-07T07:57:58;9.90;90.60
80931;DHT22;70388;42.698;23.324;2024-01-07T08:00:23;10.20;89.90
80931;DHT22;70388;42.698;23.324;2024-01-07T08:02:49;10.40;89.20
80931;DHT22;70388;42.698;23.324;2024-01-07T08:05:15;10.60;88.10
80931;DHT22;70388;42.698;23.324;2024-01-07T08:07:42;10.80;86.40
80931;DHT22;70388;42.698;23.324;2024-01-07T08:10:08;10.80;85.30
80931;DHT22;70388;42.698;23.324;2024-01-07T08:12:34;10.80;85.70
80931;DHT22;70388;42.698;23.324;2024-01-07T08:15:00;10.70;86.00
80931;DHT22;70388;42.698;23.324;2024-01-07T08:17:26;10.70;86.30
80931;DHT22;70388;42.698;23.324;2024-01-07T08:19:52;10.70;86.50
80931;DHT22;70388;42.698;23.324;2024-01-07T08:22:18;10.20;88.70
80931;DHT22;70388;42.698;23.324;2024-01-07T08:24:44;10.40;88.80
80931;DHT22;70388;42.698;23.324;2024-01-07T08:27:10;10.60;87.50
80931;DHT22;70388;42.698;23.324;2024-01-07T08:29:36;10.80;86.70
80931;DHT22;70388;42.698;23.324;2024-01-07T08:32:02;11.00;86.20
80931;DHT22;70388;42.698;23.324;2024-01-07T08:34:28;11.20;85.10
80931;DHT22;70388;42.698;23.324;2024-01-07T08:36:53;11.30;84.80
80931;DHT22;70388;42.698;23.324;2024-01-07T08:39:20;11.10;85.10
80931;DHT22;70388;42.698;23.324;2024-01-07T08:41:45;10.70;87.30
80931;DHT22;70388;42.698;23.324;2024-01-07T08:44:11;10.60;87.90
80931;DHT22;70388;42.698;23.324;2024-01-07T08:46:37;10.10;90.40
80931;DHT22;70388;42.698;23.324;2024-01-07T08:49:03;9.80;91.40
80931;DHT22;70388;42.698;23.324;2024-01-07T08:51:29;9.80;91.80
80931;DHT22;70388;42.698;23.324;2024-01-07T08:53:55;10.10;91.50
80931;DHT22;70388;42.698;23.324;2024-01-07T08:56:23;10.50;90.50
80931;DHT22;70388;42.698;23.324;2024-01-07T08:58:48;10.90;88.90
80931;DHT22;70388;42.698;23.324;2024-01-07T09:01:14;11.20;86.30
80931;DHT22;70388;42.698;23.324;2024-01-07T09:03:40;11.60;84.60
80931;DHT22;70388;42.698;23.324;2024-01-07T09:06:07;11.60;83.10
80931;DHT22;70388;42.698;23.324;2024-01-07T09:08:33;11.20;83.90
80931;DHT22;70388;42.698;23.324;2024-01-07T09:11:03;11.10;84.10
80931;DHT22;70388;42.698;23.324;2024-01-07T09:13:29;11.30;84.00
80931;DHT22;70388;42.698;23.324;2024-01-07T09:15:55;11.40;82.70
80931;DHT22;70388;42.698;23.324;2024-01-07T09:18:21;12.60;79.40
80931;DHT22;70388;42.698;23.324;2024-01-07T09:20:46;13.70;75.30
80931;DHT22;70388;42.698;23.324;2024-01-07T09:23:12;14.40;71.60
80931;DHT22;70388;42.698;23.324;2024-01-07T09:25:38;14.60;69.40
80931;DHT22;70388;42.698;23.324;2024-01-07T09:28:04;14.90;68.50
80931;DHT22;70388;42.698;23.324;2024-01-07T09:30:30;15.50;66.80
80931;DHT22;70388;42.698;23.324;2024-01-07T09:32:56;15.50;65.20
80931;DHT22;70388;42.698;23.324;2024-01-07T09:35:22;15.60;65.00
80931;DHT22;70388;42.698;23.324;2024-01-07T09:37:48;16.30;63.90
80931;DHT22;70388;42.698;23.324;2024-01-07T09:40:17;16.90;61.70
80931;DHT22;70388;42.698;23.324;2024-01-07T09:42:47;17.20;59.70
80931;DHT22;70388;42.698;23.324;2024-01-07T09:45:13;16.20;62.60
80931;DHT22;70388;42.698;23.324;2024-01-07T09:47:42;16.40;62.80
80931;DHT22;70388;42.698;23.324;2024-01-07T09:50:10;17.50;60.30
80931;DHT22;70388;42.698;23.324;2024-01-07T09:52:42;17.70;58.90
80931;DHT22;70388;42.698;23.324;2024-01-07T09:55:09;18.60;56.90
80931;DHT22;70388;42.698;23.324;2024-01-07T09:57:40;18.40;56.10
80931;DHT22;70388;42.698;23.324;2024-01-07T10:00:09;18.50;56.00
80931;DHT22;70388;42.698;23.324;2024-01-07T10:02:36;18.60;55.40
80931;DHT22;70388;42.698;23.324;2024-01-07T10:05:02;18.50;56.00
80931;DHT22;70388;42.698;23.324;2024-01-07T10:07:28;18.10;55.80
80931;DHT22;70388;42.698;23.324;2024-01-07T10:09:53;17.60;56.60
80931;DHT22;70388;42.698;23.324;2024-01-07T10:12:24;17.10;57.70
80931;DHT22;70388;42.698;23.324;2024-01-07T10:14:50;16.30;59.80
80931;DHT22;70388;42.698;23.324;2024-01-07T10:17:16;16.10;60.30
80931;DHT22;70388;42.698;23.324;2024-01-07T10:19:46;15.90;60.70
80931;DHT22;70388;42.698;23.324;2024-01-07T10:22:12;15.60;61.10
80931;DHT22;70388;42.698;23.324;2024-01-07T10:24:42;15.50;61.20
80931;DHT22;70388;42.698;23.324;2024-01-07T10:27:09;15.10;61.50
80931;DHT22;70388;42.698;23.324;2024-01-07T10:29:36;14.70;63.10
80931;DHT22;70388;42.698;23.324;2024-01-07T10:32:02;14.80;63.30
80931;DHT22;70388;42.698;23.324;2024-01-07T10:34:30;15.00;62.70
80931;DHT22;70388;42.698;23.324;2024-01-07T10:36:59;15.10;63.00
80931;DHT22;70388;42.698;23.324;2024-01-07T10:39:25;14.90;63.70
80931;DHT22;70388;42.698;23.324;2024-01-07T10:41:52;14.90;63.80
80931;DHT22;70388;42.698;23.324;2024-01-07T10:44:27;14.80;64.10
80931;DHT22;70388;42.698;23.324;2024-01-07T10:46:56;14.60;64.30
80931;DHT22;70388;42.698;23.324;2024-01-07T10:49:24;14.60;64.30
80931;DHT22;70388;42.698;23.324;2024-01-07T10:52:07;14.60;64.60
80931;DHT22;70388;42.698;23.324;2024-01-07T10:54:34;14.60;65.30
80931;DHT22;70388;42.698;23.324;2024-01-07T10:57:18;13.70;67.80
80931;DHT22;70388;42.698;23.324;2024-01-07T10:59:47;13.20;70.40
80931;DHT22;70388;42.698;23.324;2024-01-07T11:02:15;13.10;70.20
80931;DHT22;70388;42.698;23.324;2024-01-07T11:05:03;13.00;70.30
80931;DHT22;70388;42.698;23.324;2024-01-07T11:11:07;12.50;71.80
80931;DHT22;70388;42.698;23.324;2024-01-07T11:13:38;12.40;72.10
80931;DHT22;70388;42.698;23.324;2024-01-07T11:16:06;12.40;71.90
80931;DHT22;70388;42.698;23.324;2024-01-07T11:18:38;12.40;71.10
80931;DHT22;70388;42.698;23.324;2024-01-07T11:21:05;12.80;69.80
80931;DHT22;70388;42.698;23.324;2024-01-07T11:23:35;13.20;67.30
80931;DHT22;70388;42.698;23.324;2024-01-07T11:26:06;13.40;67.30
80931;DHT22;70388;42.698;23.324;2024-01-07T11:28:50;13.10;68.30
80931;DHT22;70388;42.698;23.324;2024-01-07T11:31:18;12.70;68.80
80931;DHT22;70388;42.698;23.324;2024-01-07T11:33:49;12.80;69.40
80931;DHT22;70388;42.698;23.324;2024-01-07T11:36:16;13.00;69.30
80931;DHT22;70388;42.698;23.324;2024-01-07T11:38:47;13.40;68.80
80931;DHT22;70388;42.698;23.324;2024-01-07T11:41:14;13.50;67.10
80931;DHT22;70388;42.698;23.324;2024-01-07T11:44:09;13.50;67.00
80931;DHT22;70388;42.698;23.324;2024-01-07T11:46:37;13.00;66.70
80931;DHT22;70388;42.698;23.324;2024-01-07T11:49:03;12.90;67.80
80931;DHT22;70388;42.698;23.324;2024-01-07T11:51:30;12.90;67.40
80931;DHT22;70388;42.698;23.324;2024-01-07T11:53:59;12.90;66.50
80931;DHT22;70388;42.698;23.324;2024-01-07T11:56:25;13.20;65.80
80931;DHT22;70388;42.698;23.324;2024-01-07T11:58:54;13.50;65.30
80931;DHT22;70388;42.698;23.324;2024-01-07T12:01:22;13.90;64.60
80931;DHT22;70388;42.698;23.324;2024-01-07T12:03:47;14.00;63.90
80931;DHT22;70388;42.698;23.324;2024-01-07T12:06:15;13.90;64.60
80931;DHT22;70388;42.698;23.324;2024-01-07T12:08:44;13.50;65.90
80931;DHT22;70388;42.698;23.324;2024-01-07T12:11:16;13.50;66.30
80931;DHT22;70388;42.698;23.324;2024-01-07T12:13:42;13.30;67.10
80931;DHT22;70388;42.698;23.324;2024-01-07T12:16:09;13.10;67.70
80931;DHT22;70388;42.698;23.324;2024-01-07T12:18:39;13.10;68.00
80931;DHT22;70388;42.698;23.324;2024-01-07T12:21:05;13.40;67.40
80931;DHT22;70388;42.698;23.324;2024-01-07T12:23:35;13.60;67.40
80931;DHT22;70388;42.698;23.324;2024-01-07T12:26:09;13.90;66.00
80931;DHT22;70388;42.698;23.324;2024-01-07T12:28:35;14.10;65.60
80931;DHT22;70388;42.698;23.324;2024-01-07T12:31:02;14.20;65.40
80931;DHT22;70388;42.698;23.324;2024-01-07T12:33:28;14.20;65.30
80931;DHT22;70388;42.698;23.324;2024-01-07T12:35:55;13.90;66.30
80931;DHT22;70388;42.698;23.324;2024-01-07T12:38:24;14.00;66.70
80931;DHT22;70388;42.698;23.324;2024-01-07T12:40:51;14.10;66.20
80931;DHT22;70388;42.698;23.324;2024-01-07T12:43:17;14.20;65.80
80931;DHT22;70388;42.698;23.324;2024-01-07T12:45:43;14.30;65.70
80931;DHT22;70388;42.698;23.324;2024-01-07T12:48:09;13.80;66.00
80931;DHT22;70388;42.698;23.324;2024-01-07T12:50:35;13.50;67.50
80931;DHT22;70388;42.698;23.324;2024-01-07T12:53:01;13.30;68.20
80931;DHT22;70388;42.698;23.324;2024-01-07T12:55:27;13.30;68.80
80931;DHT22;70388;42.698;23.324;2024-01-07T12:57:53;13.50;68.20
80931;DHT22;70388;42.698;23.324;2024-01-07T13:00:20;13.70;67.40
80931;DHT22;70388;42.698;23.324;2024-01-07T13:02:45;13.80;66.90
80931;DHT22;70388;42.698;23.324;2024-01-07T13:05:12;13.80;67.10
80931;DHT22;70388;42.698;23.324;2024-01-07T13:07:38;13.90;66.80
80931;DHT22;70388;42.698;23.324;2024-01-07T13:10:04;14.00;66.70
80931;DHT22;70388;42.698;23.324;2024-01-07T13:12:31;13.70;66.70
80931;DHT22;70388;42.698;23.324;2024-01-07T13:14:57;13.60;67.00
80931;DHT22;70388;42.698;23.324;2024-01-07T13:17:23;13.60;67.20
80931;DHT22;70388;42.698;23.324;2024-01-07T13:19:48;13.80;66.90
80931;DHT22;70388;42.698;23.324;2024-01-07T13:22:14;14.00;66.20
80931;DHT22;70388;42.698;23.324;2024-01-07T13:24:40;14.20;65.70
80931;DHT22;70388;42.698;23.324;2024-01-07T13:27:07;14.20;65.60
80931;DHT22;70388;42.698;23.324;2024-01-07T13:29:33;14.20;65.30
80931;DHT22;70388;42.698;23.324;2024-01-07T13:32:00;14.20;65.50
80931;DHT22;70388;42.698;23.324;2024-01-07T13:34:26;14.20;65.50
80931;DHT22;70388;42.698;23.324;2024-01-07T13:36:52;14.20;65.30
80931;DHT22;70388;42.698;23.324;2024-01-07T13:39:19;14.10;65.30
80931;DHT22;70388;42.698;23.324;2024-01-07T13:41:46;14.10;65.70
80931;DHT22;70388;42.698;23.324;2024-01-07T13:44:12;14.10;65.90
80931;DHT22;70388;42.698;23.324;2024-01-07T13:46:51;14.00;66.40
80931;DHT22;70388;42.698;23.324;2024-01-07T13:49:17;14.00;66.40
80931;DHT22;70388;42.698;23.324;2024-01-07T13:51:44;14.00;66.40
80931;DHT22;70388;42.698;23.324;2024-01-07T13:54:10;14.00;66.50
80931;DHT22;70388;42.698;23.324;2024-01-07T13:56:40;14.00;66.10
80931;DHT22;70388;42.698;23.324;2024-01-07T13:59:08;14.00;66.40
80931;DHT22;70388;42.698;23.324;2024-01-07T14:01:34;14.00;66.70
80931;DHT22;70388;42.698;23.324;2024-01-07T14:04:00;14.00;66.60
80931;DHT22;70388;42.698;23.324;2024-01-07T14:06:27;14.00;66.80
80931;DHT22;70388;42.698;23.324;2024-01-07T14:08:52;14.10;66.80
80931;DHT22;70388;42.698;23.324;2024-01-07T14:11:19;14.10;66.80
80931;DHT22;70388;42.698;23.324;2024-01-07T14:13:45;14.00;66.80
80931;DHT22;70388;42.698;23.324;2024-01-07T14:16:12;13.80;67.40
80931;DHT22;70388;42.698;23.324;2024-01-07T14:18:38;13.80;67.90
80931;DHT22;70388;42.698;23.324;2024-01-07T14:21:05;13.70;68.10
80931;DHT22;70388;42.698;23.324;2024-01-07T14:23:31;13.60;68.30
80931;DHT22;70388;42.698;23.324;2024-01-07T14:25:58;13.60;68.70
80931;DHT22;70388;42.698;23.324;2024-01-07T14:28:24;13.50;68.80
80931;DHT22;70388;42.698;23.324;2024-01-07T14:30:49;13.50;69.30
80931;DHT22;70388;42.698;23.324;2024-01-07T14:33:15;13.50;69.50
80931;DHT22;70388;42.698;23.324;2024-01-07T14:35:41;13.40;70.10
80931;DHT22;70388;42.698;23.324;2024-01-07T14:38:07;13.40;70.60
80931;DHT22;70388;42.698;23.324;2024-01-07T14:40:32;13.40;70.80
80931;DHT22;70388;42.698;23.324;2024-01-07T14:42:58;13.20;71.80
80931;DHT22;70388;42.698;23.324;2024-01-07T14:45:25;13.20;72.80
80931;DHT22;70388;42.698;23.324;2024-01-07T14:47:51;13.10;73.10
80931;DHT22;70388;42.698;23.324;2024-01-07T14:50:18;13.00;73.60
80931;DHT22;70388;42.698;23.324;2024-01-07T14:52:44;13.10;73.80
80931;DHT22;70388;42.698;23.324;2024-01-07T14:55:10;13.00;74.20
80931;DHT22;70388;42.698;23.324;2024-01-07T14:57:36;12.90;75.20
80931;DHT22;70388;42.698;23.324;2024-01-07T15:00:02;12.80;75.50
80931;DHT22;70388;42.698;23.324;2024-01-07T15:02:30;12.90;75.80
80931;DHT22;70388;42.698;23.324;2024-01-07T15:04:56;12.90;75.80
80931;DHT22;70388;42.698;23.324;2024-01-07T15:07:23;12.90;75.50
80931;DHT22;70388;42.698;23.324;2024-01-07T15:09:49;12.90;75.20
80931;DHT22;70388;42.698;23.324;2024-01-07T15:12:15;12.90;75.20
80931;DHT22;70388;42.698;23.324;2024-01-07T15:14:41;13.00;75.30
80931;DHT22;70388;42.698;23.324;2024-01-07T15:17:06;13.00;75.90
80931;DHT22;70388;42.698;23.324;2024-01-07T15:19:32;12.90;76.70
80931;DHT22;70388;42.698;23.324;2024-01-07T15:21:58;12.80;76.80